Galva, Illinois
Current Conditions -  °F | °C
As of 1:35 PM on Thursday 27 Nov 2014 (Local Time) from KGBG Reporting Station
Scattered Clouds Scattered Clouds  
Wind Chill:   Ceiling: Unl
Heat Index: 20°   Visibility: 10mi
Dew Point: 13°   Wind: 15mph
Humidity: 74%   Direction: 280°W
Pressure: 30.43"   Gusts: NA
Location:  41.17°N, 90.04°W
Report Text: KGBG 271935Z AUTO 28013KT 10SM SCT017 M07/M11 A3043 RMK AO2 T10681107
Loading
Personal Weather Stations






























Interactive Weather Map New forecast layout! Learn more

10-Day Weather Forecast

Advertisements
Track Severe Weather on mobile